sensor_id;sensor_type;location;lat;lon;timestamp;P1;durP1;ratioP1;P2;durP2;ratioP2
45836;SDS011;31548;51.420;-0.040;2022-08-04T00:02:02;0.38;;;0.30;;
45836;SDS011;31548;51.420;-0.040;2022-08-04T00:04:43;2.17;;;0.30;;
45836;SDS011;31548;51.420;-0.040;2022-08-04T00:07:36;1.38;;;0.30;;
45836;SDS011;31548;51.420;-0.040;2022-08-04T00:10:24;5.32;;;0.70;;
45836;SDS011;31548;51.420;-0.040;2022-08-04T00:12:55;1.35;;;0.43;;
45836;SDS011;31548;51.420;-0.040;2022-08-04T00:15:25;4.00;;;0.40;;
45836;SDS011;31548;51.420;-0.040;2022-08-04T00:17:53;3.65;;;0.40;;
45836;SDS011;31548;51.420;-0.040;2022-08-04T00:20:28;1.50;;;0.40;;
45836;SDS011;31548;51.420;-0.040;2022-08-04T00:22:58;1.23;;;0.45;;
45836;SDS011;31548;51.420;-0.040;2022-08-04T00:25:27;2.47;;;0.50;;
45836;SDS011;31548;51.420;-0.040;2022-08-04T00:27:55;2.15;;;0.40;;
45836;SDS011;31548;51.420;-0.040;2022-08-04T00:30:23;2.33;;;0.40;;
45836;SDS011;31548;51.420;-0.040;2022-08-04T00:32:51;0.88;;;0.40;;
45836;SDS011;31548;51.420;-0.040;2022-08-04T00:35:19;1.58;;;0.40;;
45836;SDS011;31548;51.420;-0.040;2022-08-04T00:37:46;2.92;;;0.40;;
45836;SDS011;31548;51.420;-0.040;2022-08-04T00:40:22;8.10;;;0.60;;
45836;SDS011;31548;51.420;-0.040;2022-08-04T00:43:14;2.72;;;0.50;;
45836;SDS011;31548;51.420;-0.040;2022-08-04T01:02:44;1.33;;;0.40;;
45836;SDS011;31548;51.420;-0.040;2022-08-04T01:05:40;3.08;;;0.40;;
45836;SDS011;31548;51.420;-0.040;2022-08-04T01:22:48;1.45;;;0.40;;
45836;SDS011;31548;51.420;-0.040;2022-08-04T01:31:01;2.08;;;0.50;;
45836;SDS011;31548;51.420;-0.040;2022-08-04T01:33:38;1.48;;;0.40;;
45836;SDS011;31548;51.420;-0.040;2022-08-04T01:36:29;1.23;;;0.40;;
45836;SDS011;31548;51.420;-0.040;2022-08-04T01:39:01;1.77;;;0.30;;
45836;SDS011;31548;51.420;-0.040;2022-08-04T01:41:48;2.80;;;0.55;;
45836;SDS011;31548;51.420;-0.040;2022-08-04T01:44:25;2.60;;;0.50;;
45836;SDS011;31548;51.420;-0.040;2022-08-04T01:46:55;0.63;;;0.30;;
45836;SDS011;31548;51.420;-0.040;2022-08-04T01:49:23;1.10;;;0.40;;
45836;SDS011;31548;51.420;-0.040;2022-08-04T01:52:09;4.03;;;0.40;;
45836;SDS011;31548;51.420;-0.040;2022-08-04T01:54:37;2.80;;;0.50;;
45836;SDS011;31548;51.420;-0.040;2022-08-04T01:57:08;1.38;;;0.40;;
45836;SDS011;31548;51.420;-0.040;2022-08-04T01:59:57;3.67;;;0.50;;
45836;SDS011;31548;51.420;-0.040;2022-08-04T02:02:25;3.33;;;0.60;;
45836;SDS011;31548;51.420;-0.040;2022-08-04T02:04:53;1.25;;;0.40;;
45836;SDS011;31548;51.420;-0.040;2022-08-04T02:10:07;3.33;;;0.68;;
45836;SDS011;31548;51.420;-0.040;2022-08-04T02:15:29;5.68;;;0.65;;
45836;SDS011;31548;51.420;-0.040;2022-08-04T02:20:45;2.03;;;0.40;;
45836;SDS011;31548;51.420;-0.040;2022-08-04T02:23:19;0.63;;;0.40;;
45836;SDS011;31548;51.420;-0.040;2022-08-04T02:25:54;2.08;;;0.52;;
45836;SDS011;31548;51.420;-0.040;2022-08-04T02:28:50;4.70;;;0.70;;
45836;SDS011;31548;51.420;-0.040;2022-08-04T02:31:30;1.83;;;0.50;;
45836;SDS011;31548;51.420;-0.040;2022-08-04T02:34:46;5.25;;;0.40;;
45836;SDS011;31548;51.420;-0.040;2022-08-04T02:36:51;2.70;;;0.40;;
45836;SDS011;31548;51.420;-0.040;2022-08-04T02:39:21;3.80;;;0.60;;
45836;SDS011;31548;51.420;-0.040;2022-08-04T02:41:49;4.97;;;0.95;;
45836;SDS011;31548;51.420;-0.040;2022-08-04T02:44:20;2.40;;;0.52;;
45836;SDS011;31548;51.420;-0.040;2022-08-04T02:46:52;2.78;;;0.40;;
45836;SDS011;31548;51.420;-0.040;2022-08-04T02:49:20;1.13;;;0.40;;
45836;SDS011;31548;51.420;-0.040;2022-08-04T02:51:50;3.47;;;0.50;;
45836;SDS011;31548;51.420;-0.040;2022-08-04T02:54:21;4.28;;;0.50;;
45836;SDS011;31548;51.420;-0.040;2022-08-04T02:57:00;2.85;;;0.40;;
45836;SDS011;31548;51.420;-0.040;2022-08-04T02:59:41;1.23;;;0.40;;
45836;SDS011;31548;51.420;-0.040;2022-08-04T03:02:22;2.08;;;0.40;;
45836;SDS011;31548;51.420;-0.040;2022-08-04T03:05:02;3.58;;;1.02;;
45836;SDS011;31548;51.420;-0.040;2022-08-04T03:07:46;5.45;;;0.50;;
45836;SDS011;31548;51.420;-0.040;2022-08-04T03:41:29;2.40;;;0.32;;
45836;SDS011;31548;51.420;-0.040;2022-08-04T03:50:10;1.77;;;0.40;;
45836;SDS011;31548;51.420;-0.040;2022-08-04T03:53:02;4.13;;;0.60;;
45836;SDS011;31548;51.420;-0.040;2022-08-04T03:58:38;2.22;;;0.60;;
45836;SDS011;31548;51.420;-0.040;2022-08-04T04:01:41;3.80;;;0.40;;
45836;SDS011;31548;51.420;-0.040;2022-08-04T04:04:37;3.15;;;1.00;;
45836;SDS011;31548;51.420;-0.040;2022-08-04T04:24:54;2.60;;;0.60;;
45836;SDS011;31548;51.420;-0.040;2022-08-04T04:30:06;6.20;;;0.70;;
45836;SDS011;31548;51.420;-0.040;2022-08-04T04:47:13;5.25;;;0.90;;
45836;SDS011;31548;51.420;-0.040;2022-08-04T04:58:14;8.57;;;1.40;;
45836;SDS011;31548;51.420;-0.040;2022-08-04T05:03:32;1.73;;;0.63;;
45836;SDS011;31548;51.420;-0.040;2022-08-04T05:06:27;2.40;;;0.50;;
45836;SDS011;31548;51.420;-0.040;2022-08-04T05:09:44;4.18;;;0.70;;
45836;SDS011;31548;51.420;-0.040;2022-08-04T05:15:52;5.45;;;0.75;;
45836;SDS011;31548;51.420;-0.040;2022-08-04T05:18:24;8.70;;;0.85;;
45836;SDS011;31548;51.420;-0.040;2022-08-04T05:20:56;1.88;;;0.40;;
45836;SDS011;31548;51.420;-0.040;2022-08-04T05:23:30;3.60;;;0.60;;
45836;SDS011;31548;51.420;-0.040;2022-08-04T05:26:01;4.75;;;0.63;;
45836;SDS011;31548;51.420;-0.040;2022-08-04T05:28:40;7.43;;;0.60;;
45836;SDS011;31548;51.420;-0.040;2022-08-04T05:31:20;3.65;;;0.50;;
45836;SDS011;31548;51.420;-0.040;2022-08-04T05:33:56;3.30;;;0.60;;
45836;SDS011;31548;51.420;-0.040;2022-08-04T05:36:36;7.40;;;1.45;;
45836;SDS011;31548;51.420;-0.040;2022-08-04T05:39:22;8.25;;;0.50;;
45836;SDS011;31548;51.420;-0.040;2022-08-04T05:41:59;2.85;;;0.50;;
45836;SDS011;31548;51.420;-0.040;2022-08-04T05:44:30;6.53;;;0.60;;
45836;SDS011;31548;51.420;-0.040;2022-08-04T05:46:59;5.78;;;0.60;;
45836;SDS011;31548;51.420;-0.040;2022-08-04T05:49:28;7.82;;;0.60;;
45836;SDS011;31548;51.420;-0.040;2022-08-04T05:51:57;4.90;;;0.70;;
45836;SDS011;31548;51.420;-0.040;2022-08-04T05:54:27;5.85;;;0.50;;
45836;SDS011;31548;51.420;-0.040;2022-08-04T05:56:56;6.05;;;0.70;;
45836;SDS011;31548;51.420;-0.040;2022-08-04T05:59:24;6.90;;;0.75;;
45836;SDS011;31548;51.420;-0.040;2022-08-04T06:01:54;4.32;;;0.80;;
45836;SDS011;31548;51.420;-0.040;2022-08-04T06:04:24;6.38;;;0.60;;
45836;SDS011;31548;51.420;-0.040;2022-08-04T06:07:05;12.77;;;1.02;;
45836;SDS011;31548;51.420;-0.040;2022-08-04T06:09:33;6.82;;;0.60;;
45836;SDS011;31548;51.420;-0.040;2022-08-04T06:12:02;4.72;;;0.75;;
45836;SDS011;31548;51.420;-0.040;2022-08-04T06:14:39;7.93;;;0.80;;
45836;SDS011;31548;51.420;-0.040;2022-08-04T06:17:10;5.30;;;0.60;;
45836;SDS011;31548;51.420;-0.040;2022-08-04T06:20:07;6.40;;;0.77;;
45836;SDS011;31548;51.420;-0.040;2022-08-04T06:22:53;7.60;;;0.70;;
45836;SDS011;31548;51.420;-0.040;2022-08-04T06:25:33;2.63;;;0.43;;
45836;SDS011;31548;51.420;-0.040;2022-08-04T06:28:05;5.53;;;0.40;;
45836;SDS011;31548;51.420;-0.040;2022-08-04T06:30:34;4.43;;;0.70;;
45836;SDS011;31548;51.420;-0.040;2022-08-04T06:33:02;7.35;;;0.60;;
45836;SDS011;31548;51.420;-0.040;2022-08-04T06:35:39;8.13;;;0.50;;
45836;SDS011;31548;51.420;-0.040;2022-08-04T06:38:07;5.45;;;0.60;;
45836;SDS011;31548;51.420;-0.040;2022-08-04T06:40:38;2.65;;;0.50;;
45836;SDS011;31548;51.420;-0.040;2022-08-04T06:43:06;4.40;;;0.50;;
45836;SDS011;31548;51.420;-0.040;2022-08-04T06:45:36;4.95;;;0.40;;
45836;SDS011;31548;51.420;-0.040;2022-08-04T06:48:05;6.07;;;0.70;;
45836;SDS011;31548;51.420;-0.040;2022-08-04T06:50:34;2.78;;;0.35;;
45836;SDS011;31548;51.420;-0.040;2022-08-04T06:53:22;5.55;;;0.50;;
45836;SDS011;31548;51.420;-0.040;2022-08-04T06:55:50;2.83;;;0.50;;
45836;SDS011;31548;51.420;-0.040;2022-08-04T06:58:19;4.82;;;0.60;;
45836;SDS011;31548;51.420;-0.040;2022-08-04T07:00:48;8.48;;;0.70;;
45836;SDS011;31548;51.420;-0.040;2022-08-04T07:03:16;7.18;;;0.60;;
45836;SDS011;31548;51.420;-0.040;2022-08-04T07:05:45;1.83;;;0.50;;
45836;SDS011;31548;51.420;-0.040;2022-08-04T07:08:14;3.42;;;0.50;;
45836;SDS011;31548;51.420;-0.040;2022-08-04T07:10:42;5.10;;;0.57;;
45836;SDS011;31548;51.420;-0.040;2022-08-04T07:13:10;7.97;;;0.60;;
45836;SDS011;31548;51.420;-0.040;2022-08-04T07:15:43;2.58;;;0.70;;
45836;SDS011;31548;51.420;-0.040;2022-08-04T07:18:11;6.47;;;1.00;;
45836;SDS011;31548;51.420;-0.040;2022-08-04T07:20:39;6.45;;;0.65;;
45836;SDS011;31548;51.420;-0.040;2022-08-04T07:23:11;6.47;;;0.70;;
45836;SDS011;31548;51.420;-0.040;2022-08-04T07:25:44;8.77;;;1.13;;
45836;SDS011;31548;51.420;-0.040;2022-08-04T07:28:36;8.20;;;0.93;;
45836;SDS011;31548;51.420;-0.040;2022-08-04T07:31:05;4.93;;;0.60;;
45836;SDS011;31548;51.420;-0.040;2022-08-04T07:33:57;3.03;;;0.77;;
45836;SDS011;31548;51.420;-0.040;2022-08-04T07:36:43;4.28;;;0.63;;
45836;SDS011;31548;51.420;-0.040;2022-08-04T07:39:16;2.80;;;0.60;;
45836;SDS011;31548;51.420;-0.040;2022-08-04T07:41:54;8.98;;;0.73;;
45836;SDS011;31548;51.420;-0.040;2022-08-04T07:44:22;4.57;;;0.60;;
45836;SDS011;31548;51.420;-0.040;2022-08-04T07:46:50;2.92;;;0.60;;
45836;SDS011;31548;51.420;-0.040;2022-08-04T07:49:18;4.82;;;0.70;;
45836;SDS011;31548;51.420;-0.040;2022-08-04T07:52:07;3.63;;;0.60;;
45836;SDS011;31548;51.420;-0.040;2022-08-04T07:54:34;2.38;;;0.70;;
45836;SDS011;31548;51.420;-0.040;2022-08-04T07:57:03;6.13;;;0.68;;
45836;SDS011;31548;51.420;-0.040;2022-08-04T07:59:31;9.02;;;0.75;;
45836;SDS011;31548;51.420;-0.040;2022-08-04T08:01:59;9.02;;;0.65;;
45836;SDS011;31548;51.420;-0.040;2022-08-04T08:04:27;7.43;;;0.70;;
45836;SDS011;31548;51.420;-0.040;2022-08-04T08:06:55;9.10;;;0.52;;
45836;SDS011;31548;51.420;-0.040;2022-08-04T08:09:24;4.93;;;0.68;;
45836;SDS011;31548;51.420;-0.040;2022-08-04T08:11:52;6.25;;;0.60;;
45836;SDS011;31548;51.420;-0.040;2022-08-04T08:14:40;6.53;;;0.70;;
45836;SDS011;31548;51.420;-0.040;2022-08-04T08:17:09;2.03;;;0.50;;
45836;SDS011;31548;51.420;-0.040;2022-08-04T08:19:36;5.72;;;0.65;;
45836;SDS011;31548;51.420;-0.040;2022-08-04T08:22:04;4.63;;;0.60;;
45836;SDS011;31548;51.420;-0.040;2022-08-04T08:24:33;3.58;;;0.60;;
45836;SDS011;31548;51.420;-0.040;2022-08-04T08:27:03;5.55;;;0.60;;
45836;SDS011;31548;51.420;-0.040;2022-08-04T08:29:32;2.15;;;0.40;;
45836;SDS011;31548;51.420;-0.040;2022-08-04T08:32:01;4.03;;;0.60;;
45836;SDS011;31548;51.420;-0.040;2022-08-04T08:34:34;5.40;;;0.88;;
45836;SDS011;31548;51.420;-0.040;2022-08-04T08:55:28;5.88;;;0.70;;
45836;SDS011;31548;51.420;-0.040;2022-08-04T09:09:48;2.55;;;0.50;;
45836;SDS011;31548;51.420;-0.040;2022-08-04T09:12:23;4.65;;;0.52;;
45836;SDS011;31548;51.420;-0.040;2022-08-04T09:18:01;5.35;;;0.50;;
45836;SDS011;31548;51.420;-0.040;2022-08-04T09:20:54;3.30;;;0.50;;
45836;SDS011;31548;51.420;-0.040;2022-08-04T09:28:42;7.57;;;0.50;;
45836;SDS011;31548;51.420;-0.040;2022-08-04T09:31:22;6.30;;;0.60;;
45836;SDS011;31548;51.420;-0.040;2022-08-04T09:37:03;6.95;;;1.00;;
45836;SDS011;31548;51.420;-0.040;2022-08-04T09:39:49;3.40;;;0.63;;
45836;SDS011;31548;51.420;-0.040;2022-08-04T09:42:40;2.15;;;0.32;;
45836;SDS011;31548;51.420;-0.040;2022-08-04T09:48:09;2.53;;;0.40;;
45836;SDS011;31548;51.420;-0.040;2022-08-04T09:50:41;1.98;;;0.40;;
45836;SDS011;31548;51.420;-0.040;2022-08-04T09:56:11;5.40;;;0.60;;
45836;SDS011;31548;51.420;-0.040;2022-08-04T10:01:32;2.92;;;0.70;;
45836;SDS011;31548;51.420;-0.040;2022-08-04T10:04:02;1.35;;;0.40;;
45836;SDS011;31548;51.420;-0.040;2022-08-04T10:15:01;4.25;;;0.40;;
45836;SDS011;31548;51.420;-0.040;2022-08-04T10:17:58;2.15;;;0.40;;
45836;SDS011;31548;51.420;-0.040;2022-08-04T10:20:41;1.48;;;0.30;;
45836;SDS011;31548;51.420;-0.040;2022-08-04T10:23:33;1.58;;;0.30;;
45836;SDS011;31548;51.420;-0.040;2022-08-04T10:29:28;3.88;;;0.52;;
45836;SDS011;31548;51.420;-0.040;2022-08-04T10:35:14;2.65;;;0.68;;
45836;SDS011;31548;51.420;-0.040;2022-08-04T10:51:47;0.90;;;0.30;;
45836;SDS011;31548;51.420;-0.040;2022-08-04T10:54:26;1.25;;;0.28;;
45836;SDS011;31548;51.420;-0.040;2022-08-04T10:56:59;3.70;;;0.30;;
45836;SDS011;31548;51.420;-0.040;2022-08-04T10:59:38;2.25;;;0.38;;
45836;SDS011;31548;51.420;-0.040;2022-08-04T11:02:18;1.95;;;0.30;;
45836;SDS011;31548;51.420;-0.040;2022-08-04T11:04:55;4.07;;;0.35;;
45836;SDS011;31548;51.420;-0.040;2022-08-04T11:07:38;1.70;;;0.30;;
45836;SDS011;31548;51.420;-0.040;2022-08-04T11:10:11;1.15;;;0.20;;
45836;SDS011;31548;51.420;-0.040;2022-08-04T11:12:39;3.28;;;0.40;;
45836;SDS011;31548;51.420;-0.040;2022-08-04T11:15:20;0.85;;;0.20;;
45836;SDS011;31548;51.420;-0.040;2022-08-04T11:17:55;2.05;;;0.30;;
45836;SDS011;31548;51.420;-0.040;2022-08-04T11:23:11;2.53;;;0.40;;
45836;SDS011;31548;51.420;-0.040;2022-08-04T11:28:45;1.23;;;0.20;;
45836;SDS011;31548;51.420;-0.040;2022-08-04T11:31:38;2.13;;;0.25;;
45836;SDS011;31548;51.420;-0.040;2022-08-04T11:34:22;0.40;;;0.20;;
45836;SDS011;31548;51.420;-0.040;2022-08-04T11:36:54;0.82;;;0.20;;
45836;SDS011;31548;51.420;-0.040;2022-08-04T11:39:45;2.20;;;0.30;;
45836;SDS011;31548;51.420;-0.040;2022-08-04T11:42:28;3.60;;;0.30;;
45836;SDS011;31548;51.420;-0.040;2022-08-04T11:52:39;3.85;;;0.40;;
45836;SDS011;31548;51.420;-0.040;2022-08-04T11:55:11;1.85;;;0.30;;
45836;SDS011;31548;51.420;-0.040;2022-08-04T11:57:42;1.02;;;0.20;;
45836;SDS011;31548;51.420;-0.040;2022-08-04T12:00:13;2.90;;;0.25;;
45836;SDS011;31548;51.420;-0.040;2022-08-04T12:02:55;4.45;;;0.40;;
45836;SDS011;31548;51.420;-0.040;2022-08-04T12:05:35;1.40;;;0.20;;
45836;SDS011;31548;51.420;-0.040;2022-08-04T12:14:08;1.05;;;0.20;;
45836;SDS011;31548;51.420;-0.040;2022-08-04T12:16:41;2.67;;;0.40;;
45836;SDS011;31548;51.420;-0.040;2022-08-04T12:19:21;2.08;;;0.40;;
45836;SDS011;31548;51.420;-0.040;2022-08-04T12:22:17;1.25;;;0.45;;
45836;SDS011;31548;51.420;-0.040;2022-08-04T12:24:58;1.15;;;0.35;;
45836;SDS011;31548;51.420;-0.040;2022-08-04T12:27:34;1.55;;;0.13;;
45836;SDS011;31548;51.420;-0.040;2022-08-04T12:30:05;1.05;;;0.20;;
45836;SDS011;31548;51.420;-0.040;2022-08-04T12:33:04;3.40;;;0.40;;
45836;SDS011;31548;51.420;-0.040;2022-08-04T12:36:04;0.45;;;0.20;;
45836;SDS011;31548;51.420;-0.040;2022-08-04T12:38:48;0.73;;;0.20;;
45836;SDS011;31548;51.420;-0.040;2022-08-04T12:41:22;2.38;;;0.30;;
45836;SDS011;31548;51.420;-0.040;2022-08-04T12:43:53;1.05;;;0.30;;
45836;SDS011;31548;51.420;-0.040;2022-08-04T12:46:22;3.53;;;0.30;;
45836;SDS011;31548;51.420;-0.040;2022-08-04T12:48:51;1.13;;;0.20;;
45836;SDS011;31548;51.420;-0.040;2022-08-04T12:51:24;1.38;;;0.20;;
45836;SDS011;31548;51.420;-0.040;2022-08-04T12:54:13;1.65;;;0.32;;
45836;SDS011;31548;51.420;-0.040;2022-08-04T12:56:57;1.23;;;0.20;;
45836;SDS011;31548;51.420;-0.040;2022-08-04T12:59:27;1.55;;;0.20;;
45836;SDS011;31548;51.420;-0.040;2022-08-04T13:01:55;2.13;;;0.47;;
45836;SDS011;31548;51.420;-0.040;2022-08-04T13:04:36;1.30;;;0.20;;
45836;SDS011;31548;51.420;-0.040;2022-08-04T13:07:23;1.55;;;0.38;;
45836;SDS011;31548;51.420;-0.040;2022-08-04T13:09:53;0.43;;;0.15;;
45836;SDS011;31548;51.420;-0.040;2022-08-04T13:12:25;1.17;;;0.20;;
45836;SDS011;31548;51.420;-0.040;2022-08-04T13:15:04;0.77;;;0.20;;
45836;SDS011;31548;51.420;-0.040;2022-08-04T13:17:55;0.93;;;0.20;;
45836;SDS011;31548;51.420;-0.040;2022-08-04T13:20:32;7.38;;;0.40;;
45836;SDS011;31548;51.420;-0.040;2022-08-04T13:23:12;1.60;;;0.30;;
45836;SDS011;31548;51.420;-0.040;2022-08-04T13:25:48;2.60;;;0.50;;
45836;SDS011;31548;51.420;-0.040;2022-08-04T13:28:38;2.10;;;0.20;;
45836;SDS011;31548;51.420;-0.040;2022-08-04T13:31:10;1.10;;;0.30;;
45836;SDS011;31548;51.420;-0.040;2022-08-04T13:33:44;2.00;;;0.40;;
45836;SDS011;31548;51.420;-0.040;2022-08-04T13:36:15;1.40;;;0.30;;
45836;SDS011;31548;51.420;-0.040;2022-08-04T13:38:52;1.50;;;0.20;;
45836;SDS011;31548;51.420;-0.040;2022-08-04T13:41:21;1.77;;;0.55;;
45836;SDS011;31548;51.420;-0.040;2022-08-04T13:43:57;4.13;;;0.30;;
45836;SDS011;31548;51.420;-0.040;2022-08-04T13:49:41;0.65;;;0.20;;
45836;SDS011;31548;51.420;-0.040;2022-08-04T13:52:28;1.33;;;0.20;;
45836;SDS011;31548;51.420;-0.040;2022-08-04T13:54:55;6.50;;;0.30;;
45836;SDS011;31548;51.420;-0.040;2022-08-04T13:57:28;1.15;;;0.30;;
45836;SDS011;31548;51.420;-0.040;2022-08-04T13:59:58;2.53;;;0.30;;
45836;SDS011;31548;51.420;-0.040;2022-08-04T14:05:14;3.05;;;0.30;;
45836;SDS011;31548;51.420;-0.040;2022-08-04T14:07:57;0.77;;;0.20;;
45836;SDS011;31548;51.420;-0.040;2022-08-04T14:10:34;0.60;;;0.20;;
45836;SDS011;31548;51.420;-0.040;2022-08-04T14:13:03;1.80;;;0.40;;
45836;SDS011;31548;51.420;-0.040;2022-08-04T14:15:37;1.40;;;0.20;;
45836;SDS011;31548;51.420;-0.040;2022-08-04T14:18:27;0.60;;;0.30;;
45836;SDS011;31548;51.420;-0.040;2022-08-04T14:23:52;1.52;;;0.30;;
45836;SDS011;31548;51.420;-0.040;2022-08-04T14:32:01;4.93;;;0.30;;
45836;SDS011;31548;51.420;-0.040;2022-08-04T14:34:37;1.20;;;0.20;;
45836;SDS011;31548;51.420;-0.040;2022-08-04T14:37:08;0.55;;;0.20;;
45836;SDS011;31548;51.420;-0.040;2022-08-04T14:39:47;1.55;;;0.20;;
45836;SDS011;31548;51.420;-0.040;2022-08-04T14:42:44;1.45;;;0.20;;
45836;SDS011;31548;51.420;-0.040;2022-08-04T14:48:08;2.72;;;0.10;;
45836;SDS011;31548;51.420;-0.040;2022-08-04T14:53:16;1.98;;;0.30;;
45836;SDS011;31548;51.420;-0.040;2022-08-04T14:55:49;1.00;;;0.32;;
45836;SDS011;31548;51.420;-0.040;2022-08-04T14:58:21;3.17;;;0.30;;
45836;SDS011;31548;51.420;-0.040;2022-08-04T15:03:40;2.95;;;0.30;;
45836;SDS011;31548;51.420;-0.040;2022-08-04T15:06:22;1.90;;;0.38;;
45836;SDS011;31548;51.420;-0.040;2022-08-04T15:08:53;1.27;;;0.20;;
45836;SDS011;31548;51.420;-0.040;2022-08-04T15:11:23;2.35;;;0.32;;
45836;SDS011;31548;51.420;-0.040;2022-08-04T15:13:51;1.23;;;0.13;;
45836;SDS011;31548;51.420;-0.040;2022-08-04T15:16:19;2.28;;;0.35;;
45836;SDS011;31548;51.420;-0.040;2022-08-04T15:18:47;0.73;;;0.30;;
45836;SDS011;31548;51.420;-0.040;2022-08-04T15:21:15;0.60;;;0.20;;
45836;SDS011;31548;51.420;-0.040;2022-08-04T15:23:43;0.70;;;0.30;;
45836;SDS011;31548;51.420;-0.040;2022-08-04T15:26:53;0.52;;;0.20;;
45836;SDS011;31548;51.420;-0.040;2022-08-04T15:29:13;0.50;;;0.20;;
45836;SDS011;31548;51.420;-0.040;2022-08-04T15:31:45;3.63;;;0.20;;
45836;SDS011;31548;51.420;-0.040;2022-08-04T15:34:46;0.93;;;0.17;;
45836;SDS011;31548;51.420;-0.040;2022-08-04T15:37:22;6.03;;;0.30;;
45836;SDS011;31548;51.420;-0.040;2022-08-04T15:40:07;2.30;;;0.20;;
45836;SDS011;31548;51.420;-0.040;2022-08-04T15:42:58;4.10;;;0.30;;
45836;SDS011;31548;51.420;-0.040;2022-08-04T15:45:50;2.53;;;0.40;;
45836;SDS011;31548;51.420;-0.040;2022-08-04T15:48:45;1.95;;;0.30;;
45836;SDS011;31548;51.420;-0.040;2022-08-04T15:51:14;6.38;;;0.30;;
45836;SDS011;31548;51.420;-0.040;2022-08-04T15:58:57;1.02;;;0.20;;
45836;SDS011;31548;51.420;-0.040;2022-08-04T16:01:24;0.80;;;0.20;;
45836;SDS011;31548;51.420;-0.040;2022-08-04T16:03:53;4.80;;;0.30;;
45836;SDS011;31548;51.420;-0.040;2022-08-04T16:08:57;0.80;;;0.20;;
45836;SDS011;31548;51.420;-0.040;2022-08-04T16:22:06;0.75;;;0.20;;
45836;SDS011;31548;51.420;-0.040;2022-08-04T16:24:37;3.60;;;0.20;;
45836;SDS011;31548;51.420;-0.040;2022-08-04T16:27:12;0.73;;;0.20;;
45836;SDS011;31548;51.420;-0.040;2022-08-04T16:29:43;1.90;;;0.30;;
45836;SDS011;31548;51.420;-0.040;2022-08-04T16:32:19;4.80;;;0.40;;
45836;SDS011;31548;51.420;-0.040;2022-08-04T16:37:22;1.60;;;0.28;;
45836;SDS011;31548;51.420;-0.040;2022-08-04T16:42:50;1.13;;;0.22;;
45836;SDS011;31548;51.420;-0.040;2022-08-04T16:45:17;1.30;;;0.28;;
45836;SDS011;31548;51.420;-0.040;2022-08-04T16:50:15;4.90;;;0.30;;
45836;SDS011;31548;51.420;-0.040;2022-08-04T16:52:53;0.73;;;0.20;;
45836;SDS011;31548;51.420;-0.040;2022-08-04T16:55:22;0.70;;;0.20;;
45836;SDS011;31548;51.420;-0.040;2022-08-04T16:57:52;2.33;;;0.30;;
45836;SDS011;31548;51.420;-0.040;2022-08-04T17:00:31;1.23;;;0.30;;
45836;SDS011;31548;51.420;-0.040;2022-08-04T17:03:04;1.33;;;0.20;;
45836;SDS011;31548;51.420;-0.040;2022-08-04T17:05:32;1.90;;;0.30;;
45836;SDS011;31548;51.420;-0.040;2022-08-04T17:08:05;1.83;;;0.28;;
45836;SDS011;31548;51.420;-0.040;2022-08-04T17:10:54;4.32;;;0.30;;
45836;SDS011;31548;51.420;-0.040;2022-08-04T17:13:32;1.13;;;0.30;;
45836;SDS011;31548;51.420;-0.040;2022-08-04T17:16:21;0.20;;;0.20;;
45836;SDS011;31548;51.420;-0.040;2022-08-04T17:18:51;2.08;;;0.25;;
45836;SDS011;31548;51.420;-0.040;2022-08-04T17:21:24;0.55;;;0.40;;
45836;SDS011;31548;51.420;-0.040;2022-08-04T17:23:54;2.20;;;0.20;;
45836;SDS011;31548;51.420;-0.040;2022-08-04T17:26:43;1.33;;;0.40;;
45836;SDS011;31548;51.420;-0.040;2022-08-04T17:29:21;0.80;;;0.20;;
45836;SDS011;31548;51.420;-0.040;2022-08-04T17:32:14;0.47;;;0.17;;
45836;SDS011;31548;51.420;-0.040;2022-08-04T17:34:53;3.90;;;0.28;;
45836;SDS011;31548;51.420;-0.040;2022-08-04T17:37:23;1.75;;;0.25;;
45836;SDS011;31548;51.420;-0.040;2022-08-04T17:40:13;0.63;;;0.25;;
45836;SDS011;31548;51.420;-0.040;2022-08-04T17:43:01;0.40;;;0.20;;
45836;SDS011;31548;51.420;-0.040;2022-08-04T17:49:01;1.45;;;0.17;;
45836;SDS011;31548;51.420;-0.040;2022-08-04T17:54:33;2.67;;;0.22;;
45836;SDS011;31548;51.420;-0.040;2022-08-04T17:57:15;0.95;;;0.20;;
45836;SDS011;31548;51.420;-0.040;2022-08-04T17:59:55;1.05;;;0.20;;
45836;SDS011;31548;51.420;-0.040;2022-08-04T18:02:29;1.30;;;0.30;;
45836;SDS011;31548;51.420;-0.040;2022-08-04T18:05:01;1.30;;;0.25;;
45836;SDS011;31548;51.420;-0.040;2022-08-04T18:07:38;0.32;;;0.20;;
45836;SDS011;31548;51.420;-0.040;2022-08-04T18:10:35;2.00;;;0.22;;
45836;SDS011;31548;51.420;-0.040;2022-08-04T18:13:22;0.50;;;0.30;;
45836;SDS011;31548;51.420;-0.040;2022-08-04T18:21:45;2.30;;;0.40;;
45836;SDS011;31548;51.420;-0.040;2022-08-04T18:24:29;2.63;;;0.30;;
45836;SDS011;31548;51.420;-0.040;2022-08-04T18:27:18;1.75;;;0.20;;
45836;SDS011;31548;51.420;-0.040;2022-08-04T18:29:50;3.03;;;0.30;;
45836;SDS011;31548;51.420;-0.040;2022-08-04T18:32:38;0.98;;;0.20;;
45836;SDS011;31548;51.420;-0.040;2022-08-04T18:35:26;0.63;;;0.10;;
45836;SDS011;31548;51.420;-0.040;2022-08-04T18:38:14;0.93;;;0.28;;
45836;SDS011;31548;51.420;-0.040;2022-08-04T18:41:01;1.83;;;0.20;;
45836;SDS011;31548;51.420;-0.040;2022-08-04T18:43:34;0.85;;;0.20;;
45836;SDS011;31548;51.420;-0.040;2022-08-04T18:46:06;1.70;;;0.40;;
45836;SDS011;31548;51.420;-0.040;2022-08-04T18:48:40;0.75;;;0.20;;
45836;SDS011;31548;51.420;-0.040;2022-08-04T18:51:17;3.22;;;0.22;;
45836;SDS011;31548;51.420;-0.040;2022-08-04T18:53:56;2.80;;;0.20;;
45836;SDS011;31548;51.420;-0.040;2022-08-04T18:56:25;3.72;;;0.40;;
45836;SDS011;31548;51.420;-0.040;2022-08-04T18:59:02;4.22;;;0.32;;
45836;SDS011;31548;51.420;-0.040;2022-08-04T19:01:36;1.30;;;0.22;;
45836;SDS011;31548;51.420;-0.040;2022-08-04T19:04:24;0.93;;;0.40;;
45836;SDS011;31548;51.420;-0.040;2022-08-04T19:06:59;4.97;;;0.20;;
45836;SDS011;31548;51.420;-0.040;2022-08-04T19:09:47;1.67;;;0.20;;
45836;SDS011;31548;51.420;-0.040;2022-08-04T19:12:18;6.72;;;0.30;;
45836;SDS011;31548;51.420;-0.040;2022-08-04T19:14:54;1.50;;;0.20;;
45836;SDS011;31548;51.420;-0.040;2022-08-04T19:17:24;4.30;;;0.50;;
45836;SDS011;31548;51.420;-0.040;2022-08-04T19:20:12;1.23;;;0.35;;
45836;SDS011;31548;51.420;-0.040;2022-08-04T19:22:50;2.88;;;0.40;;
45836;SDS011;31548;51.420;-0.040;2022-08-04T19:25:39;4.55;;;0.30;;
45836;SDS011;31548;51.420;-0.040;2022-08-04T19:28:27;0.38;;;0.22;;
45836;SDS011;31548;51.420;-0.040;2022-08-04T19:31:04;1.25;;;0.20;;
45836;SDS011;31548;51.420;-0.040;2022-08-04T19:33:33;1.27;;;0.20;;
45836;SDS011;31548;51.420;-0.040;2022-08-04T19:36:21;2.20;;;0.25;;
45836;SDS011;31548;51.420;-0.040;2022-08-04T19:38:55;0.98;;;0.30;;
45836;SDS011;31548;51.420;-0.040;2022-08-04T19:41:23;1.10;;;0.20;;
45836;SDS011;31548;51.420;-0.040;2022-08-04T19:43:52;2.40;;;0.30;;
45836;SDS011;31548;51.420;-0.040;2022-08-04T19:46:20;4.35;;;0.20;;
45836;SDS011;31548;51.420;-0.040;2022-08-04T19:48:50;1.80;;;0.30;;
45836;SDS011;31548;51.420;-0.040;2022-08-04T19:51:26;2.05;;;0.30;;
45836;SDS011;31548;51.420;-0.040;2022-08-04T19:53:55;2.70;;;0.30;;
45836;SDS011;31548;51.420;-0.040;2022-08-04T19:56:36;0.80;;;0.28;;
45836;SDS011;31548;51.420;-0.040;2022-08-04T19:59:07;0.30;;;0.20;;
45836;SDS011;31548;51.420;-0.040;2022-08-04T20:01:35;2.00;;;0.20;;
45836;SDS011;31548;51.420;-0.040;2022-08-04T20:04:11;2.75;;;0.30;;
45836;SDS011;31548;51.420;-0.040;2022-08-04T20:06:39;2.85;;;0.30;;
45836;SDS011;31548;51.420;-0.040;2022-08-04T20:09:07;2.63;;;0.20;;
45836;SDS011;31548;51.420;-0.040;2022-08-04T20:11:50;0.68;;;0.20;;
45836;SDS011;31548;51.420;-0.040;2022-08-04T20:14:18;1.15;;;0.30;;
45836;SDS011;31548;51.420;-0.040;2022-08-04T20:16:59;1.08;;;0.20;;
45836;SDS011;31548;51.420;-0.040;2022-08-04T20:19:36;0.40;;;0.20;;
45836;SDS011;31548;51.420;-0.040;2022-08-04T20:22:04;1.17;;;0.20;;